sensor_id;sensor_type;location;lat;lon;timestamp;P1;durP1;ratioP1;P2;durP2;ratioP2
31716;SDS011;18301;51.076;17.046;2023-03-31T00:03:56;3.33;;;2.30;;
31716;SDS011;18301;51.076;17.046;2023-03-31T00:09:06;4.85;;;2.28;;
31716;SDS011;18301;51.076;17.046;2023-03-31T00:14:11;4.82;;;2.63;;
31716;SDS011;18301;51.076;17.046;2023-03-31T00:19:13;3.63;;;2.33;;
31716;SDS011;18301;51.076;17.046;2023-03-31T00:24:18;4.85;;;2.42;;
31716;SDS011;18301;51.076;17.046;2023-03-31T00:29:20;5.90;;;2.40;;
31716;SDS011;18301;51.076;17.046;2023-03-31T00:34:21;3.63;;;2.30;;
31716;SDS011;18301;51.076;17.046;2023-03-31T00:39:23;5.07;;;2.60;;
31716;SDS011;18301;51.076;17.046;2023-03-31T00:44:27;5.35;;;2.47;;
31716;SDS011;18301;51.076;17.046;2023-03-31T00:49:31;4.53;;;2.90;;
31716;SDS011;18301;51.076;17.046;2023-03-31T00:54:48;4.93;;;3.35;;
31716;SDS011;18301;51.076;17.046;2023-03-31T00:59:56;9.52;;;3.65;;
31716;SDS011;18301;51.076;17.046;2023-03-31T01:05:01;7.72;;;3.95;;
31716;SDS011;18301;51.076;17.046;2023-03-31T01:10:03;6.40;;;3.33;;
31716;SDS011;18301;51.076;17.046;2023-03-31T01:15:06;6.75;;;3.10;;
31716;SDS011;18301;51.076;17.046;2023-03-31T01:26:09;8.25;;;3.30;;
31716;SDS011;18301;51.076;17.046;2023-03-31T01:36:58;8.43;;;4.20;;
31716;SDS011;18301;51.076;17.046;2023-03-31T01:42:35;9.40;;;4.28;;
31716;SDS011;18301;51.076;17.046;2023-03-31T01:47:43;8.93;;;4.53;;
31716;SDS011;18301;51.076;17.046;2023-03-31T01:52:58;6.25;;;4.25;;
31716;SDS011;18301;51.076;17.046;2023-03-31T01:58:10;7.65;;;4.63;;
31716;SDS011;18301;51.076;17.046;2023-03-31T02:03:16;6.72;;;4.32;;
31716;SDS011;18301;51.076;17.046;2023-03-31T02:08:24;8.20;;;4.88;;
31716;SDS011;18301;51.076;17.046;2023-03-31T02:13:29;13.40;;;5.18;;
31716;SDS011;18301;51.076;17.046;2023-03-31T02:18:34;8.93;;;5.28;;
31716;SDS011;18301;51.076;17.046;2023-03-31T02:23:38;9.80;;;5.45;;
31716;SDS011;18301;51.076;17.046;2023-03-31T02:28:40;11.90;;;6.22;;
31716;SDS011;18301;51.076;17.046;2023-03-31T02:33:41;9.93;;;5.35;;
31716;SDS011;18301;51.076;17.046;2023-03-31T02:38:54;12.68;;;5.65;;
31716;SDS011;18301;51.076;17.046;2023-03-31T02:43:59;13.13;;;5.70;;
31716;SDS011;18301;51.076;17.046;2023-03-31T02:49:02;12.80;;;5.90;;
31716;SDS011;18301;51.076;17.046;2023-03-31T02:54:12;10.63;;;5.57;;
31716;SDS011;18301;51.076;17.046;2023-03-31T03:04:50;9.52;;;5.07;;
31716;SDS011;18301;51.076;17.046;2023-03-31T03:10:05;10.20;;;5.93;;
31716;SDS011;18301;51.076;17.046;2023-03-31T03:20:22;9.20;;;5.00;;
31716;SDS011;18301;51.076;17.046;2023-03-31T03:25:24;6.40;;;4.68;;
31716;SDS011;18301;51.076;17.046;2023-03-31T03:30:26;8.98;;;4.95;;
31716;SDS011;18301;51.076;17.046;2023-03-31T03:35:27;9.95;;;5.53;;
31716;SDS011;18301;51.076;17.046;2023-03-31T03:40:29;13.50;;;7.40;;
31716;SDS011;18301;51.076;17.046;2023-03-31T03:45:30;13.45;;;7.75;;
31716;SDS011;18301;51.076;17.046;2023-03-31T03:50:47;11.23;;;6.72;;
31716;SDS011;18301;51.076;17.046;2023-03-31T03:55:50;15.02;;;7.45;;
31716;SDS011;18301;51.076;17.046;2023-03-31T04:00:51;15.32;;;9.25;;
31716;SDS011;18301;51.076;17.046;2023-03-31T04:05:53;14.32;;;8.32;;
31716;SDS011;18301;51.076;17.046;2023-03-31T04:10:54;13.00;;;7.35;;
31716;SDS011;18301;51.076;17.046;2023-03-31T04:15:56;10.82;;;7.00;;
31716;SDS011;18301;51.076;17.046;2023-03-31T04:20:58;9.23;;;6.50;;
31716;SDS011;18301;51.076;17.046;2023-03-31T04:26:05;11.32;;;6.85;;
31716;SDS011;18301;51.076;17.046;2023-03-31T04:31:09;14.15;;;8.55;;
31716;SDS011;18301;51.076;17.046;2023-03-31T04:36:15;8.32;;;5.50;;
31716;SDS011;18301;51.076;17.046;2023-03-31T04:41:20;14.07;;;8.52;;
31716;SDS011;18301;51.076;17.046;2023-03-31T04:46:22;10.55;;;7.15;;
31716;SDS011;18301;51.076;17.046;2023-03-31T04:51:24;12.75;;;7.18;;
31716;SDS011;18301;51.076;17.046;2023-03-31T04:56:25;12.38;;;7.05;;
31716;SDS011;18301;51.076;17.046;2023-03-31T05:01:27;10.27;;;6.72;;
31716;SDS011;18301;51.076;17.046;2023-03-31T05:06:33;11.75;;;7.18;;
31716;SDS011;18301;51.076;17.046;2023-03-31T05:11:34;10.32;;;6.50;;
31716;SDS011;18301;51.076;17.046;2023-03-31T05:16:36;9.52;;;6.43;;
31716;SDS011;18301;51.076;17.046;2023-03-31T05:21:38;11.02;;;6.40;;
31716;SDS011;18301;51.076;17.046;2023-03-31T05:26:39;10.60;;;6.72;;
31716;SDS011;18301;51.076;17.046;2023-03-31T05:31:41;9.25;;;6.60;;
31716;SDS011;18301;51.076;17.046;2023-03-31T05:36:43;10.57;;;6.05;;
31716;SDS011;18301;51.076;17.046;2023-03-31T05:41:45;10.40;;;6.50;;
31716;SDS011;18301;51.076;17.046;2023-03-31T05:46:46;10.02;;;6.03;;
31716;SDS011;18301;51.076;17.046;2023-03-31T05:51:47;11.20;;;7.15;;
31716;SDS011;18301;51.076;17.046;2023-03-31T05:56:49;11.50;;;6.93;;
31716;SDS011;18301;51.076;17.046;2023-03-31T06:01:50;9.20;;;6.20;;
31716;SDS011;18301;51.076;17.046;2023-03-31T06:06:52;9.75;;;6.47;;
31716;SDS011;18301;51.076;17.046;2023-03-31T06:11:54;10.82;;;6.30;;
31716;SDS011;18301;51.076;17.046;2023-03-31T06:16:56;10.70;;;6.22;;
31716;SDS011;18301;51.076;17.046;2023-03-31T06:21:58;9.82;;;6.00;;
31716;SDS011;18301;51.076;17.046;2023-03-31T06:26:59;9.88;;;6.30;;
31716;SDS011;18301;51.076;17.046;2023-03-31T06:32:01;9.55;;;6.05;;
31716;SDS011;18301;51.076;17.046;2023-03-31T06:37:05;9.18;;;6.00;;
31716;SDS011;18301;51.076;17.046;2023-03-31T06:42:07;8.43;;;5.95;;
31716;SDS011;18301;51.076;17.046;2023-03-31T06:47:08;7.28;;;5.22;;
31716;SDS011;18301;51.076;17.046;2023-03-31T06:52:10;8.77;;;5.57;;
31716;SDS011;18301;51.076;17.046;2023-03-31T06:57:11;9.48;;;5.28;;
31716;SDS011;18301;51.076;17.046;2023-03-31T07:02:13;9.10;;;4.80;;
31716;SDS011;18301;51.076;17.046;2023-03-31T07:07:14;7.47;;;4.95;;
31716;SDS011;18301;51.076;17.046;2023-03-31T07:12:16;7.30;;;4.75;;
31716;SDS011;18301;51.076;17.046;2023-03-31T07:17:18;8.25;;;5.68;;
31716;SDS011;18301;51.076;17.046;2023-03-31T07:22:19;9.40;;;5.00;;
31716;SDS011;18301;51.076;17.046;2023-03-31T07:27:21;10.50;;;6.03;;
31716;SDS011;18301;51.076;17.046;2023-03-31T07:32:26;8.60;;;5.03;;
31716;SDS011;18301;51.076;17.046;2023-03-31T07:37:33;8.45;;;5.63;;
31716;SDS011;18301;51.076;17.046;2023-03-31T07:42:38;11.52;;;6.82;;
31716;SDS011;18301;51.076;17.046;2023-03-31T07:47:39;9.75;;;6.32;;
31716;SDS011;18301;51.076;17.046;2023-03-31T07:52:41;9.52;;;6.60;;
31716;SDS011;18301;51.076;17.046;2023-03-31T07:57:46;11.02;;;6.95;;
31716;SDS011;18301;51.076;17.046;2023-03-31T08:02:48;13.25;;;7.88;;
31716;SDS011;18301;51.076;17.046;2023-03-31T08:07:49;10.32;;;7.55;;
31716;SDS011;18301;51.076;17.046;2023-03-31T08:12:51;10.70;;;6.38;;
31716;SDS011;18301;51.076;17.046;2023-03-31T08:17:53;9.95;;;7.35;;
31716;SDS011;18301;51.076;17.046;2023-03-31T08:22:55;10.57;;;6.60;;
31716;SDS011;18301;51.076;17.046;2023-03-31T08:27:56;13.73;;;7.38;;
31716;SDS011;18301;51.076;17.046;2023-03-31T08:32:58;12.80;;;7.30;;
31716;SDS011;18301;51.076;17.046;2023-03-31T08:37:59;9.63;;;5.40;;
31716;SDS011;18301;51.076;17.046;2023-03-31T08:43:07;8.85;;;5.32;;
31716;SDS011;18301;51.076;17.046;2023-03-31T08:48:20;7.22;;;5.10;;
31716;SDS011;18301;51.076;17.046;2023-03-31T08:58:40;6.40;;;4.32;;
31716;SDS011;18301;51.076;17.046;2023-03-31T09:09:16;5.68;;;3.42;;
31716;SDS011;18301;51.076;17.046;2023-03-31T09:14:40;7.15;;;3.60;;
31716;SDS011;18301;51.076;17.046;2023-03-31T09:19:57;5.15;;;3.67;;
31716;SDS011;18301;51.076;17.046;2023-03-31T09:25:12;5.80;;;3.10;;
31716;SDS011;18301;51.076;17.046;2023-03-31T09:30:21;5.85;;;4.13;;
31716;SDS011;18301;51.076;17.046;2023-03-31T09:35:27;8.68;;;4.20;;
31716;SDS011;18301;51.076;17.046;2023-03-31T09:40:33;6.65;;;4.03;;
31716;SDS011;18301;51.076;17.046;2023-03-31T09:45:35;8.38;;;3.65;;
31716;SDS011;18301;51.076;17.046;2023-03-31T09:50:42;7.72;;;4.13;;
31716;SDS011;18301;51.076;17.046;2023-03-31T09:55:52;7.60;;;4.03;;
31716;SDS011;18301;51.076;17.046;2023-03-31T10:01:01;7.75;;;3.95;;
31716;SDS011;18301;51.076;17.046;2023-03-31T10:06:09;5.93;;;3.60;;
31716;SDS011;18301;51.076;17.046;2023-03-31T10:11:14;7.90;;;4.32;;
31716;SDS011;18301;51.076;17.046;2023-03-31T10:16:26;7.65;;;4.10;;
31716;SDS011;18301;51.076;17.046;2023-03-31T10:21:34;9.43;;;4.57;;
31716;SDS011;18301;51.076;17.046;2023-03-31T10:26:37;8.30;;;3.88;;
31716;SDS011;18301;51.076;17.046;2023-03-31T10:31:40;10.23;;;4.70;;
31716;SDS011;18301;51.076;17.046;2023-03-31T10:36:45;8.82;;;3.92;;
31716;SDS011;18301;51.076;17.046;2023-03-31T10:41:51;6.63;;;3.20;;
31716;SDS011;18301;51.076;17.046;2023-03-31T10:46:53;6.93;;;4.00;;
31716;SDS011;18301;51.076;17.046;2023-03-31T10:51:56;10.32;;;3.88;;
31716;SDS011;18301;51.076;17.046;2023-03-31T10:57:00;5.65;;;3.45;;
31716;SDS011;18301;51.076;17.046;2023-03-31T11:02:19;5.45;;;2.85;;
31716;SDS011;18301;51.076;17.046;2023-03-31T11:28:50;10.90;;;3.22;;
31716;SDS011;18301;51.076;17.046;2023-03-31T11:34:32;5.38;;;2.50;;
31716;SDS011;18301;51.076;17.046;2023-03-31T11:39:45;6.25;;;2.78;;
31716;SDS011;18301;51.076;17.046;2023-03-31T11:45:12;5.72;;;2.92;;
31716;SDS011;18301;51.076;17.046;2023-03-31T11:50:19;6.07;;;2.63;;
31716;SDS011;18301;51.076;17.046;2023-03-31T11:55:24;6.65;;;3.22;;
31716;SDS011;18301;51.076;17.046;2023-03-31T12:00:39;4.97;;;2.50;;
31716;SDS011;18301;51.076;17.046;2023-03-31T12:05:45;7.13;;;2.88;;
31716;SDS011;18301;51.076;17.046;2023-03-31T12:10:53;8.05;;;3.63;;
31716;SDS011;18301;51.076;17.046;2023-03-31T12:16:08;6.87;;;3.10;;
31716;SDS011;18301;51.076;17.046;2023-03-31T12:21:14;6.50;;;2.85;;
31716;SDS011;18301;51.076;17.046;2023-03-31T12:26:21;5.18;;;2.28;;
31716;SDS011;18301;51.076;17.046;2023-03-31T12:31:25;5.25;;;2.40;;
31716;SDS011;18301;51.076;17.046;2023-03-31T12:42:20;6.53;;;2.80;;
31716;SDS011;18301;51.076;17.046;2023-03-31T12:48:04;5.63;;;2.60;;
31716;SDS011;18301;51.076;17.046;2023-03-31T13:03:35;4.57;;;2.63;;
31716;SDS011;18301;51.076;17.046;2023-03-31T13:14:02;6.25;;;3.17;;
31716;SDS011;18301;51.076;17.046;2023-03-31T13:24:30;10.40;;;3.22;;
31716;SDS011;18301;51.076;17.046;2023-03-31T13:29:42;6.22;;;3.03;;
31716;SDS011;18301;51.076;17.046;2023-03-31T13:34:57;5.85;;;3.10;;
31716;SDS011;18301;51.076;17.046;2023-03-31T14:06:49;7.85;;;4.32;;
31716;SDS011;18301;51.076;17.046;2023-03-31T14:11:59;11.00;;;5.97;;
31716;SDS011;18301;51.076;17.046;2023-03-31T14:17:01;11.63;;;5.13;;
31716;SDS011;18301;51.076;17.046;2023-03-31T14:22:25;5.95;;;3.13;;
31716;SDS011;18301;51.076;17.046;2023-03-31T14:38:25;6.75;;;3.40;;
31716;SDS011;18301;51.076;17.046;2023-03-31T14:43:30;8.35;;;3.90;;
31716;SDS011;18301;51.076;17.046;2023-03-31T14:48:37;11.70;;;5.28;;
31716;SDS011;18301;51.076;17.046;2023-03-31T14:53:45;8.35;;;4.40;;
31716;SDS011;18301;51.076;17.046;2023-03-31T14:58:47;11.27;;;5.22;;
31716;SDS011;18301;51.076;17.046;2023-03-31T15:03:52;9.88;;;5.20;;
31716;SDS011;18301;51.076;17.046;2023-03-31T15:08:56;8.60;;;5.13;;
31716;SDS011;18301;51.076;17.046;2023-03-31T15:13:58;13.18;;;7.30;;
31716;SDS011;18301;51.076;17.046;2023-03-31T15:24:35;13.82;;;6.78;;
31716;SDS011;18301;51.076;17.046;2023-03-31T15:29:39;9.45;;;5.30;;
31716;SDS011;18301;51.076;17.046;2023-03-31T15:34:44;8.93;;;4.13;;
31716;SDS011;18301;51.076;17.046;2023-03-31T15:39:46;5.97;;;4.00;;
31716;SDS011;18301;51.076;17.046;2023-03-31T15:44:55;5.10;;;2.97;;
31716;SDS011;18301;51.076;17.046;2023-03-31T15:50:19;8.57;;;2.80;;
31716;SDS011;18301;51.076;17.046;2023-03-31T16:00:39;3.83;;;2.40;;
31716;SDS011;18301;51.076;17.046;2023-03-31T16:05:55;2.95;;;2.20;;
31716;SDS011;18301;51.076;17.046;2023-03-31T16:11:00;5.60;;;2.55;;
31716;SDS011;18301;51.076;17.046;2023-03-31T16:16:07;4.63;;;2.80;;
31716;SDS011;18301;51.076;17.046;2023-03-31T16:21:12;4.35;;;2.55;;
31716;SDS011;18301;51.076;17.046;2023-03-31T16:26:19;5.00;;;2.55;;
31716;SDS011;18301;51.076;17.046;2023-03-31T16:31:32;5.45;;;3.13;;
31716;SDS011;18301;51.076;17.046;2023-03-31T16:36:37;5.95;;;3.30;;
31716;SDS011;18301;51.076;17.046;2023-03-31T16:41:38;4.78;;;3.15;;
31716;SDS011;18301;51.076;17.046;2023-03-31T16:46:40;7.47;;;3.65;;
31716;SDS011;18301;51.076;17.046;2023-03-31T16:51:41;12.45;;;6.43;;
31716;SDS011;18301;51.076;17.046;2023-03-31T16:56:43;16.33;;;6.28;;
31716;SDS011;18301;51.076;17.046;2023-03-31T17:01:44;21.27;;;9.77;;
31716;SDS011;18301;51.076;17.046;2023-03-31T17:06:46;25.45;;;11.73;;
31716;SDS011;18301;51.076;17.046;2023-03-31T17:11:47;12.95;;;7.68;;
31716;SDS011;18301;51.076;17.046;2023-03-31T17:16:49;17.17;;;8.93;;
31716;SDS011;18301;51.076;17.046;2023-03-31T17:21:51;24.67;;;14.93;;
31716;SDS011;18301;51.076;17.046;2023-03-31T17:26:52;22.45;;;13.50;;
31716;SDS011;18301;51.076;17.046;2023-03-31T17:31:54;22.80;;;13.07;;
31716;SDS011;18301;51.076;17.046;2023-03-31T17:36:55;19.05;;;11.57;;
31716;SDS011;18301;51.076;17.046;2023-03-31T17:41:57;21.10;;;12.25;;
31716;SDS011;18301;51.076;17.046;2023-03-31T17:46:59;20.38;;;12.25;;
31716;SDS011;18301;51.076;17.046;2023-03-31T17:52:01;17.60;;;10.95;;
31716;SDS011;18301;51.076;17.046;2023-03-31T17:57:02;17.15;;;10.98;;
31716;SDS011;18301;51.076;17.046;2023-03-31T18:02:04;18.30;;;10.45;;
31716;SDS011;18301;51.076;17.046;2023-03-31T18:07:06;18.00;;;11.05;;
31716;SDS011;18301;51.076;17.046;2023-03-31T18:12:07;15.98;;;9.68;;
31716;SDS011;18301;51.076;17.046;2023-03-31T18:17:10;15.15;;;9.10;;
31716;SDS011;18301;51.076;17.046;2023-03-31T18:22:14;14.73;;;8.68;;
31716;SDS011;18301;51.076;17.046;2023-03-31T18:27:16;11.27;;;6.65;;
31716;SDS011;18301;51.076;17.046;2023-03-31T18:32:18;10.27;;;6.70;;
31716;SDS011;18301;51.076;17.046;2023-03-31T18:37:20;9.13;;;5.78;;
31716;SDS011;18301;51.076;17.046;2023-03-31T18:42:22;11.63;;;6.70;;
31716;SDS011;18301;51.076;17.046;2023-03-31T18:47:25;11.25;;;6.45;;
31716;SDS011;18301;51.076;17.046;2023-03-31T18:52:27;8.88;;;5.93;;
31716;SDS011;18301;51.076;17.046;2023-03-31T18:57:29;7.82;;;5.68;;
31716;SDS011;18301;51.076;17.046;2023-03-31T19:02:30;10.40;;;4.72;;
31716;SDS011;18301;51.076;17.046;2023-03-31T19:07:32;8.15;;;5.13;;
31716;SDS011;18301;51.076;17.046;2023-03-31T19:12:34;9.38;;;5.75;;
31716;SDS011;18301;51.076;17.046;2023-03-31T19:17:35;10.10;;;6.05;;
31716;SDS011;18301;51.076;17.046;2023-03-31T19:22:37;11.93;;;6.22;;
31716;SDS011;18301;51.076;17.046;2023-03-31T19:27:39;10.30;;;5.78;;
31716;SDS011;18301;51.076;17.046;2023-03-31T19:32:41;8.57;;;5.63;;
31716;SDS011;18301;51.076;17.046;2023-03-31T19:37:43;9.95;;;5.28;;
31716;SDS011;18301;51.076;17.046;2023-03-31T19:42:45;12.30;;;6.18;;
31716;SDS011;18301;51.076;17.046;2023-03-31T19:47:46;11.68;;;6.40;;
31716;SDS011;18301;51.076;17.046;2023-03-31T19:52:48;11.80;;;6.53;;
31716;SDS011;18301;51.076;17.046;2023-03-31T19:57:50;16.15;;;7.43;;
31716;SDS011;18301;51.076;17.046;2023-03-31T20:02:51;16.35;;;7.68;;
31716;SDS011;18301;51.076;17.046;2023-03-31T20:07:53;15.80;;;7.70;;
31716;SDS011;18301;51.076;17.046;2023-03-31T20:12:54;15.48;;;7.95;;
31716;SDS011;18301;51.076;17.046;2023-03-31T20:17:56;11.93;;;7.40;;
31716;SDS011;18301;51.076;17.046;2023-03-31T20:22:58;13.75;;;7.93;;
31716;SDS011;18301;51.076;17.046;2023-03-31T20:28:00;14.68;;;7.85;;
31716;SDS011;18301;51.076;17.046;2023-03-31T20:33:01;18.75;;;9.20;;
31716;SDS011;18301;51.076;17.046;2023-03-31T20:38:03;20.42;;;9.75;;
31716;SDS011;18301;51.076;17.046;2023-03-31T20:43:05;14.27;;;7.53;;
31716;SDS011;18301;51.076;17.046;2023-03-31T20:48:06;13.05;;;6.35;;
31716;SDS011;18301;51.076;17.046;2023-03-31T20:53:08;13.32;;;6.38;;
31716;SDS011;18301;51.076;17.046;2023-03-31T20:58:09;10.20;;;5.60;;
31716;SDS011;18301;51.076;17.046;2023-03-31T21:03:11;7.53;;;4.47;;
31716;SDS011;18301;51.076;17.046;2023-03-31T21:08:12;5.68;;;3.28;;
31716;SDS011;18301;51.076;17.046;2023-03-31T21:13:14;6.68;;;2.58;;
31716;SDS011;18301;51.076;17.046;2023-03-31T21:18:16;3.22;;;1.63;;
31716;SDS011;18301;51.076;17.046;2023-03-31T21:23:18;2.05;;;1.48;;
31716;SDS011;18301;51.076;17.046;2023-03-31T21:28:21;3.28;;;1.92;;
31716;SDS011;18301;51.076;17.046;2023-03-31T21:33:25;2.78;;;1.73;;
31716;SDS011;18301;51.076;17.046;2023-03-31T21:38:27;2.83;;;1.48;;
31716;SDS011;18301;51.076;17.046;2023-03-31T21:43:28;2.47;;;1.40;;
31716;SDS011;18301;51.076;17.046;2023-03-31T21:48:30;2.45;;;0.85;;
31716;SDS011;18301;51.076;17.046;2023-03-31T21:53:31;3.15;;;1.20;;
31716;SDS011;18301;51.076;17.046;2023-03-31T21:58:33;3.45;;;1.30;;
31716;SDS011;18301;51.076;17.046;2023-03-31T22:03:34;2.03;;;1.40;;
31716;SDS011;18301;51.076;17.046;2023-03-31T22:08:38;1.92;;;1.05;;
31716;SDS011;18301;51.076;17.046;2023-03-31T22:13:40;5.70;;;1.20;;
31716;SDS011;18301;51.076;17.046;2023-03-31T22:18:42;1.42;;;1.17;;
31716;SDS011;18301;51.076;17.046;2023-03-31T22:23:44;2.03;;;1.50;;
31716;SDS011;18301;51.076;17.046;2023-03-31T22:28:46;1.60;;;1.30;;
31716;SDS011;18301;51.076;17.046;2023-03-31T22:33:48;3.22;;;1.77;;
31716;SDS011;18301;51.076;17.046;2023-03-31T22:38:50;4.10;;;1.70;;
31716;SDS011;18301;51.076;17.046;2023-03-31T22:43:51;1.83;;;1.48;;
31716;SDS011;18301;51.076;17.046;2023-03-31T22:48:53;3.13;;;1.60;;
31716;SDS011;18301;51.076;17.046;2023-03-31T22:53:54;2.50;;;1.30;;
31716;SDS011;18301;51.076;17.046;2023-03-31T22:58:56;3.25;;;1.50;;
31716;SDS011;18301;51.076;17.046;2023-03-31T23:03:58;3.83;;;1.90;;
31716;SDS011;18301;51.076;17.046;2023-03-31T23:09:01;3.17;;;1.90;;
31716;SDS011;18301;51.076;17.046;2023-03-31T23:14:02;4.07;;;2.22;;
31716;SDS011;18301;51.076;17.046;2023-03-31T23:19:04;5.68;;;2.80;;
31716;SDS011;18301;51.076;17.046;2023-03-31T23:24:06;3.28;;;2.25;;
31716;SDS011;18301;51.076;17.046;2023-03-31T23:29:07;6.55;;;2.95;;
31716;SDS011;18301;51.076;17.046;2023-03-31T23:34:09;4.68;;;3.20;;
31716;SDS011;18301;51.076;17.046;2023-03-31T23:39:11;6.45;;;3.65;;
31716;SDS011;18301;51.076;17.046;2023-03-31T23:44:12;5.95;;;3.70;;
31716;SDS011;18301;51.076;17.046;2023-03-31T23:49:14;8.52;;;3.95;;
31716;SDS011;18301;51.076;17.046;2023-03-31T23:54:16;7.35;;;4.13;;
31716;SDS011;18301;51.076;17.046;2023-03-31T23:59:17;18.20;;;8.98;;
